AFR2582 KBFI-KSDF
Flight info
| Callsign | AFR2582 |
|---|---|
| Flight time | N/A |
| Altitude | 37000 |
| Route | ZADON ZELAK ZIRAN ZAXBY BLOWS HLN J136 BIL KD90U KP81A KP72G IOW PIA CYBIL JMONY2 |
| Aircraft | B77F/H-SDE1E2E3FGHIJ2J3J4J5M1RWXY/LB1D1 |
Departure
| Time | 2026-04-30 11:12 |
|---|---|
| Airport | King County International Airport - Boeing Field (KBFI) |
Arrival
| Time | N/A |
|---|---|
| Airport | Louisville Muhammad Ali International Airport (KSDF) |
| Time | Latitude | Longitude | Altitude | Speed | Heading |
|---|---|---|---|---|---|
| 2026-04-30 11:05 | 47.53439 | -122.30308 | 30 ft | 0 kts | 329° |
| 2026-04-30 11:07 | 47.53439 | -122.30309 | 29 ft | 0 kts | 329° |
| 2026-04-30 11:08 | 47.53444 | -122.30314 | 29 ft | 4 kts | 329° |
| 2026-04-30 11:08 | 47.53504 | -122.30366 | 29 ft | 14 kts | 330° |
| 2026-04-30 11:08 | 47.53588 | -122.30450 | 29 ft | 13 kts | 323° |
| 2026-04-30 11:09 | 47.53664 | -122.30527 | 30 ft | 12 kts | 330° |
| 2026-04-30 11:09 | 47.53737 | -122.30590 | 30 ft | 11 kts | 330° |
| 2026-04-30 11:09 | 47.53804 | -122.30644 | 30 ft | 10 kts | 332° |
| 2026-04-30 11:09 | 47.53871 | -122.30698 | 30 ft | 11 kts | 332° |
| 2026-04-30 11:10 | 47.53945 | -122.30757 | 30 ft | 12 kts | 332° |
| 2026-04-30 11:10 | 47.54026 | -122.30821 | 30 ft | 12 kts | 332° |
| 2026-04-30 11:10 | 47.54089 | -122.30895 | 30 ft | 11 kts | 315° |
| 2026-04-30 11:10 | 47.54094 | -122.30997 | 29 ft | 11 kts | 248° |
| 2026-04-30 11:11 | 47.54046 | -122.31086 | 28 ft | 11 kts | 198° |
| 2026-04-30 11:11 | 47.53952 | -122.31046 | 27 ft | 22 kts | 151° |
| 2026-04-30 11:11 | 47.53670 | -122.30804 | 27 ft | 82 kts | 150° |
| 2026-04-30 11:11 | 47.52939 | -122.30190 | 25 ft | 156 kts | 150° |
| 2026-04-30 11:12 | 47.51864 | -122.29311 | 483 ft | 183 kts | 153° |
| 2026-04-30 11:12 | 47.50739 | -122.28409 | 1296 ft | 191 kts | 149° |
| 2026-04-30 11:12 | 47.49599 | -122.27457 | 1944 ft | 193 kts | 149° |
| 2026-04-30 11:12 | 47.48381 | -122.26437 | 2297 ft | 212 kts | 149° |
| 2026-04-30 11:13 | 47.47051 | -122.25311 | 2640 ft | 232 kts | 148° |
| 2026-04-30 11:13 | 47.45618 | -122.24033 | 2970 ft | 244 kts | 143° |
| 2026-04-30 11:13 | 47.44510 | -122.22120 | 3285 ft | 246 kts | 112° |
| 2026-04-30 11:13 | 47.44210 | -122.19654 | 3629 ft | 248 kts | 83° |
| 2026-04-30 11:14 | 47.44775 | -122.17239 | 3979 ft | 249 kts | 59° |
| 2026-04-30 11:14 | 47.45583 | -122.14981 | 4334 ft | 250 kts | 68° |
| 2026-04-30 11:14 | 47.46234 | -122.12540 | 4697 ft | 250 kts | 69° |
| 2026-04-30 11:14 | 47.46874 | -122.10087 | 5062 ft | 255 kts | 69° |
| 2026-04-30 11:15 | 47.47521 | -122.07594 | 5426 ft | 258 kts | 69° |
| 2026-04-30 11:15 | 47.48171 | -122.05092 | 5787 ft | 259 kts | 69° |
| 2026-04-30 11:15 | 47.48826 | -122.02567 | 6181 ft | 260 kts | 69° |
| 2026-04-30 11:15 | 47.49503 | -121.99957 | 6602 ft | 261 kts | 69° |
| 2026-04-30 11:16 | 47.50170 | -121.97379 | 7019 ft | 265 kts | 69° |
| 2026-04-30 11:16 | 47.50848 | -121.94756 | 7440 ft | 265 kts | 70° |
| 2026-04-30 11:16 | 47.51527 | -121.92125 | 7848 ft | 268 kts | 70° |
| 2026-04-30 11:16 | 47.52213 | -121.89468 | 8271 ft | 269 kts | 70° |
| 2026-04-30 11:17 | 47.52927 | -121.86697 | 8708 ft | 270 kts | 70° |
| 2026-04-30 11:17 | 47.53632 | -121.83954 | 9132 ft | 272 kts | 70° |
| 2026-04-30 11:17 | 47.54337 | -121.81210 | 9543 ft | 273 kts | 70° |
| 2026-04-30 11:17 | 47.55036 | -121.78488 | 9924 ft | 279 kts | 70° |
| 2026-04-30 11:18 | 47.55699 | -121.75751 | 10302 ft | 280 kts | 75° |
| 2026-04-30 11:18 | 47.56193 | -121.69675 | 10987 ft | 302 kts | 90° |
| 2026-04-30 11:18 | 47.56143 | -121.66269 | 11176 ft | 325 kts | 91° |
| 2026-04-30 11:19 | 47.56089 | -121.62667 | 11452 ft | 345 kts | 90° |
| 2026-04-30 11:19 | 47.56037 | -121.58902 | 11727 ft | 355 kts | 90° |
| 2026-04-30 11:19 | 47.55985 | -121.55021 | 11995 ft | 358 kts | 90° |
| 2026-04-30 11:19 | 47.55931 | -121.51161 | 12335 ft | 360 kts | 90° |
| 2026-04-30 11:20 | 47.55877 | -121.47294 | 12746 ft | 363 kts | 90° |
| 2026-04-30 11:20 | 47.55820 | -121.43362 | 13167 ft | 365 kts | 90° |
| 2026-04-30 11:20 | 47.55762 | -121.39414 | 13578 ft | 368 kts | 90° |
| 2026-04-30 11:20 | 47.55702 | -121.35444 | 13996 ft | 371 kts | 90° |
| 2026-04-30 11:21 | 47.55639 | -121.31406 | 14419 ft | 373 kts | 90° |
| 2026-04-30 11:21 | 47.55576 | -121.27403 | 14836 ft | 376 kts | 90° |
| 2026-04-30 11:21 | 47.55510 | -121.23301 | 15260 ft | 379 kts | 90° |
| 2026-04-30 11:21 | 47.55442 | -121.19196 | 15681 ft | 381 kts | 90° |
| 2026-04-30 11:22 | 47.55374 | -121.15177 | 16091 ft | 383 kts | 90° |
| 2026-04-30 11:22 | 47.55303 | -121.11058 | 16507 ft | 385 kts | 90° |
| 2026-04-30 11:22 | 47.55230 | -121.06864 | 16927 ft | 388 kts | 89° |
| 2026-04-30 11:22 | 47.55155 | -121.02697 | 17342 ft | 389 kts | 89° |
| 2026-04-30 11:23 | 47.55077 | -120.98449 | 17765 ft | 393 kts | 89° |
| 2026-04-30 11:23 | 47.54998 | -120.94217 | 18182 ft | 395 kts | 89° |
| 2026-04-30 11:23 | 47.54834 | -120.85689 | 19021 ft | 401 kts | 89° |
| 2026-04-30 11:24 | 47.54749 | -120.81366 | 19443 ft | 402 kts | 89° |
| 2026-04-30 11:24 | 47.54661 | -120.77038 | 19869 ft | 405 kts | 89° |
| 2026-04-30 11:24 | 47.54571 | -120.72658 | 20296 ft | 407 kts | 89° |
| 2026-04-30 11:25 | 47.54383 | -120.63766 | 21162 ft | 412 kts | 89° |
| 2026-04-30 11:25 | 47.54288 | -120.59380 | 21590 ft | 415 kts | 89° |
| 2026-04-30 11:25 | 47.54087 | -120.50362 | 22463 ft | 421 kts | 88° |
| 2026-04-30 11:26 | 47.53877 | -120.41247 | 23360 ft | 424 kts | 88° |
| 2026-04-30 11:26 | 47.53801 | -120.36615 | 23822 ft | 426 kts | 88° |
| 2026-04-30 11:26 | 47.53739 | -120.32011 | 24266 ft | 432 kts | 88° |
| 2026-04-30 11:27 | 47.53672 | -120.27250 | 24576 ft | 444 kts | 88° |
| 2026-04-30 11:27 | 47.53599 | -120.22373 | 24878 ft | 448 kts | 88° |
| 2026-04-30 11:27 | 47.53524 | -120.17508 | 25164 ft | 451 kts | 88° |
| 2026-04-30 11:27 | 47.53445 | -120.12631 | 25440 ft | 451 kts | 88° |
| 2026-04-30 11:28 | 47.53281 | -120.02840 | 25991 ft | 455 kts | 88° |
| 2026-04-30 11:28 | 47.53194 | -119.97879 | 26258 ft | 456 kts | 87° |
| 2026-04-30 11:28 | 47.53105 | -119.92881 | 26532 ft | 458 kts | 87° |
| 2026-04-30 11:29 | 47.53013 | -119.87882 | 26806 ft | 461 kts | 87° |
| 2026-04-30 11:29 | 47.52920 | -119.82943 | 27068 ft | 462 kts | 87° |
| 2026-04-30 11:29 | 47.52725 | -119.72865 | 27618 ft | 467 kts | 87° |
| 2026-04-30 11:30 | 47.52520 | -119.62833 | 28155 ft | 469 kts | 86° |
| 2026-04-30 11:30 | 47.52413 | -119.57733 | 28427 ft | 470 kts | 86° |
| 2026-04-30 11:30 | 47.52304 | -119.52643 | 28694 ft | 473 kts | 86° |
| 2026-04-30 11:31 | 47.52193 | -119.47532 | 28978 ft | 474 kts | 86° |
| 2026-04-30 11:31 | 47.52076 | -119.42313 | 29254 ft | 476 kts | 86° |
| 2026-04-30 11:31 | 47.51958 | -119.37152 | 29536 ft | 477 kts | 86° |
| 2026-04-30 11:31 | 47.51839 | -119.32018 | 29811 ft | 479 kts | 87° |
| 2026-04-30 11:32 | 47.51717 | -119.26846 | 30105 ft | 482 kts | 87° |
| 2026-04-30 11:32 | 47.51591 | -119.21637 | 30378 ft | 486 kts | 87° |
| 2026-04-30 11:32 | 47.51462 | -119.16369 | 30646 ft | 488 kts | 87° |
| 2026-04-30 11:33 | 47.51196 | -119.05857 | 31186 ft | 489 kts | 87° |
| 2026-04-30 11:33 | 47.51058 | -119.00590 | 31449 ft | 488 kts | 87° |
| 2026-04-30 11:33 | 47.50919 | -118.95335 | 31726 ft | 490 kts | 87° |
| 2026-04-30 11:33 | 47.50778 | -118.90100 | 31989 ft | 490 kts | 87° |
| 2026-04-30 11:34 | 47.50637 | -118.84943 | 32256 ft | 489 kts | 87° |
| 2026-04-30 11:34 | 47.50489 | -118.79662 | 32484 ft | 489 kts | 87° |
| 2026-04-30 11:34 | 47.50344 | -118.74490 | 32757 ft | 491 kts | 87° |
| 2026-04-30 11:34 | 47.50193 | -118.69234 | 33038 ft | 489 kts | 87° |
| 2026-04-30 11:35 | 47.50038 | -118.63940 | 33268 ft | 489 kts | 86° |
| 2026-04-30 11:35 | 47.49883 | -118.58699 | 33530 ft | 491 kts | 86° |
| 2026-04-30 11:35 | 47.49725 | -118.53432 | 33784 ft | 489 kts | 86° |
| 2026-04-30 11:35 | 47.49564 | -118.48189 | 34023 ft | 488 kts | 86° |
| 2026-04-30 11:36 | 47.49406 | -118.43069 | 34278 ft | 490 kts | 86° |
| 2026-04-30 11:36 | 47.49242 | -118.37888 | 34510 ft | 487 kts | 86° |
| 2026-04-30 11:36 | 47.49075 | -118.32654 | 34755 ft | 489 kts | 87° |
| 2026-04-30 11:36 | 47.48905 | -118.27389 | 34974 ft | 489 kts | 87° |
| 2026-04-30 11:37 | 47.48734 | -118.22158 | 35187 ft | 491 kts | 88° |
| 2026-04-30 11:37 | 47.48562 | -118.16975 | 35228 ft | 493 kts | 88° |
| 2026-04-30 11:37 | 47.48209 | -118.06624 | 35225 ft | 487 kts | 88° |
| 2026-04-30 11:38 | 47.47856 | -117.96484 | 35236 ft | 487 kts | 88° |
| 2026-04-30 11:38 | 47.47488 | -117.86200 | 35465 ft | 487 kts | 88° |
| 2026-04-30 11:39 | 47.47299 | -117.80997 | 35607 ft | 487 kts | 88° |
| 2026-04-30 11:39 | 47.47110 | -117.75879 | 35781 ft | 487 kts | 88° |
| 2026-04-30 11:39 | 47.46920 | -117.70764 | 35920 ft | 487 kts | 88° |
| 2026-04-30 11:39 | 47.46727 | -117.65666 | 36083 ft | 489 kts | 88° |
| 2026-04-30 11:40 | 47.46536 | -117.60641 | 36220 ft | 488 kts | 88° |
| 2026-04-30 11:40 | 47.46254 | -117.55577 | 36341 ft | 488 kts | 90° |
| 2026-04-30 11:40 | 47.45912 | -117.50434 | 36466 ft | 489 kts | 91° |
| 2026-04-30 11:40 | 47.45567 | -117.45273 | 36586 ft | 491 kts | 91° |
| 2026-04-30 11:41 | 47.45221 | -117.40092 | 36724 ft | 491 kts | 90° |
| 2026-04-30 11:41 | 47.44875 | -117.34891 | 36865 ft | 494 kts | 91° |
| 2026-04-30 11:41 | 47.44526 | -117.29681 | 36985 ft | 494 kts | 91° |
| 2026-04-30 11:41 | 47.44175 | -117.24462 | 37129 ft | 494 kts | 92° |
| 2026-04-30 11:42 | 47.43484 | -117.14229 | 37241 ft | 496 kts | 92° |
| 2026-04-30 11:42 | 47.42777 | -117.03891 | 37435 ft | 493 kts | 91° |
| 2026-04-30 11:43 | 47.42429 | -116.98852 | 37262 ft | 493 kts | 91° |
| 2026-04-30 11:43 | 47.42077 | -116.93774 | 37233 ft | 490 kts | 92° |
| 2026-04-30 11:43 | 47.41368 | -116.83626 | 37232 ft | 494 kts | 92° |
| 2026-04-30 11:44 | 47.40697 | -116.74155 | 37239 ft | 492 kts | 92° |